Time;durP1;ratioP1;P1;durP2;ratioP2;P2;SDS_P1;SDS_P2;PMS_P1;PMS_P2;Temp;Humidity;BMP_temperature;BMP_pressure;BME280_temperature;BME280_humidity;BME280_pressure;Samples;Min_cycle;Max_cycle;Signal;HPM_P1;HPM_P2
2021/07/23 00:01:44;;;;;;;1.13;0.68;;;16.20;70.00;;;;;;5014775;28;20044;-89
2021/07/23 00:04:11;;;;;;;1.02;0.65;;;16.00;70.00;;;;;;5015155;28;20037;-87
2021/07/23 00:06:36;;;;;;;0.65;0.65;;;16.10;70.10;;;;;;5015298;28;20049;-87
2021/07/23 00:09:03;;;;;;;0.93;0.75;;;16.10;70.20;;;;;;5012108;28;20037;-87
2021/07/23 00:11:29;;;;;;;0.70;0.70;;;16.10;70.30;;;;;;5029709;28;20064;-87
2021/07/23 00:13:54;;;;;;;0.70;0.60;;;16.00;70.20;;;;;;5014999;28;20041;-88
2021/07/23 00:16:20;;;;;;;0.55;0.50;;;16.00;70.30;;;;;;5011434;28;20140;-88
2021/07/23 00:18:48;;;;;;;0.50;0.50;;;16.10;70.50;;;;;;5013376;28;20501;-89
2021/07/23 00:21:14;;;;;;;0.50;0.50;;;15.90;70.40;;;;;;4998434;28;20084;-88
2021/07/23 00:23:40;;;;;;;1.30;0.70;;;15.90;70.40;;;;;;4975819;28;20077;-86
2021/07/23 00:26:10;;;;;;;0.85;0.73;;;15.90;70.50;;;;;;4959615;28;20046;-88
2021/07/23 00:28:42;;;;;;;0.73;0.63;;;15.90;70.50;;;;;;4959915;28;20034;-87
2021/07/23 00:31:07;;;;;;;0.65;0.60;;;15.90;70.50;;;;;;4959870;28;20041;-87
2021/07/23 00:33:33;;;;;;;0.60;0.60;;;15.90;70.50;;;;;;4959484;28;20046;-87
2021/07/23 00:35:59;;;;;;;0.63;0.52;;;15.90;70.60;;;;;;4975947;28;20046;-87
2021/07/23 00:38:25;;;;;;;0.50;0.50;;;15.90;70.70;;;;;;4960568;28;20047;-86
2021/07/23 00:40:51;;;;;;;0.40;0.40;;;15.90;70.70;;;;;;4983555;28;20058;-86
2021/07/23 00:43:16;;;;;;;0.60;0.40;;;15.90;70.80;;;;;;4992861;28;20112;-88
2021/07/23 00:45:43;;;;;;;0.50;0.50;;;15.90;70.80;;;;;;4960732;28;20057;-87
2021/07/23 00:48:09;;;;;;;0.70;0.50;;;15.90;70.90;;;;;;4979867;28;20107;-86
2021/07/23 00:50:35;;;;;;;0.60;0.60;;;15.80;70.90;;;;;;4982718;28;20046;-88
2021/07/23 00:53:04;;;;;;;0.57;0.57;;;15.80;71.00;;;;;;4998371;28;20033;-88
2021/07/23 00:55:30;;;;;;;0.60;0.60;;;15.80;71.10;;;;;;5009003;28;20047;-87
2021/07/23 00:57:58;;;;;;;0.57;0.57;;;15.70;71.00;;;;;;5038770;28;20119;-87
2021/07/23 01:00:24;;;;;;;0.43;0.43;;;15.70;71.10;;;;;;5022139;28;20091;-87
2021/07/23 01:02:52;;;;;;;0.88;0.70;;;15.70;71.20;;;;;;5055082;28;20040;-87
2021/07/23 01:05:18;;;;;;;0.40;0.40;;;15.80;71.30;;;;;;5038088;28;20036;-88
2021/07/23 01:07:45;;;;;;;0.30;0.30;;;15.60;71.20;;;;;;5021831;28;20094;-87
2021/07/23 01:10:11;;;;;;;0.50;0.50;;;15.60;71.20;;;;;;5021965;28;20043;-87
2021/07/23 01:12:37;;;;;;;1.23;0.60;;;15.70;71.30;;;;;;5022024;28;20048;-87
2021/07/23 01:15:04;;;;;;;0.70;0.60;;;15.60;71.30;;;;;;5021649;28;20060;-87
2021/07/23 01:17:30;;;;;;;1.65;0.55;;;15.70;71.50;;;;;;5021956;28;20036;-87
2021/07/23 01:20:05;;;;;;;0.57;0.57;;;15.50;71.50;;;;;;5020981;28;20107;-88
2021/07/23 01:22:31;;;;;;;0.60;0.60;;;15.60;71.70;;;;;;5024387;28;20068;-88
2021/07/23 01:24:58;;;;;;;0.57;0.57;;;15.40;71.60;;;;;;5025211;28;20425;-87
2021/07/23 01:27:27;;;;;;;0.90;0.65;;;15.50;71.70;;;;;;5041748;28;20513;-87
2021/07/23 01:30:01;;;;;;;0.65;0.55;;;15.40;71.70;;;;;;5041505;28;20119;-86
2021/07/23 01:32:27;;;;;;;0.40;0.40;;;15.50;71.80;;;;;;5041555;28;20090;-86
2021/07/23 01:34:52;;;;;;;0.93;0.70;;;15.50;71.80;;;;;;5024259;28;20032;-86
2021/07/23 01:37:19;;;;;;;0.82;0.77;;;15.40;71.80;;;;;;5041402;28;20491;-88
2021/07/23 01:39:46;;;;;;;0.65;0.32;;;15.40;71.80;;;;;;5023474;28;20083;-87
2021/07/23 01:42:11;;;;;;;0.77;0.65;;;15.40;71.90;;;;;;5041156;28;20048;-86
2021/07/23 01:44:37;;;;;;;0.60;0.60;;;15.40;71.90;;;;;;5024150;28;20848;-87
2021/07/23 01:47:03;;;;;;;0.80;0.70;;;15.40;71.90;;;;;;5023601;28;20048;-87
2021/07/23 01:49:29;;;;;;;0.85;0.50;;;15.30;71.90;;;;;;5056015;28;20052;-86
2021/07/23 01:51:55;;;;;;;0.60;0.60;;;15.40;72.00;;;;;;5040999;28;20062;-86
2021/07/23 01:54:20;;;;;;;0.65;0.60;;;15.20;72.00;;;;;;5041021;28;20036;-87
2021/07/23 01:56:46;;;;;;;0.65;0.65;;;15.30;72.20;;;;;;5040864;28;20106;-86
2021/07/23 01:59:12;;;;;;;1.55;0.47;;;15.30;72.20;;;;;;5040919;28;20045;-86
2021/07/23 02:01:38;;;;;;;0.65;0.65;;;15.20;72.20;;;;;;5041225;28;20135;-87
2021/07/23 02:04:03;;;;;;;0.70;0.70;;;15.20;72.30;;;;;;5024280;28;20397;-87
2021/07/23 02:06:29;;;;;;;0.52;0.52;;;15.30;72.50;;;;;;5038651;28;20065;-86
2021/07/23 02:08:55;;;;;;;0.60;0.60;;;15.10;72.40;;;;;;5024347;28;20045;-87
2021/07/23 02:11:21;;;;;;;0.90;0.43;;;15.10;72.40;;;;;;5057260;28;20044;-87
2021/07/23 02:13:46;;;;;;;0.45;0.45;;;15.20;72.50;;;;;;5057742;28;20072;-87
2021/07/23 02:16:12;;;;;;;0.40;0.40;;;15.10;72.50;;;;;;5038710;28;20474;-86
2021/07/23 02:18:38;;;;;;;0.45;0.40;;;15.10;72.50;;;;;;5020743;28;20040;-87
2021/07/23 02:21:06;;;;;;;0.50;0.50;;;15.10;72.50;;;;;;5031597;28;20045;-87
2021/07/23 02:23:32;;;;;;;0.60;0.50;;;15.00;72.50;;;;;;5036305;28;20376;-86
2021/07/23 02:25:58;;;;;;;0.47;0.45;;;15.10;72.60;;;;;;5051084;28;20040;-86
2021/07/23 02:28:24;;;;;;;1.02;0.60;;;15.10;72.70;;;;;;5037395;28;20048;-86
2021/07/23 02:30:50;;;;;;;1.13;0.70;;;15.10;72.80;;;;;;5024126;28;20044;-86
2021/07/23 02:33:15;;;;;;;0.40;0.40;;;15.00;72.80;;;;;;5037562;28;20124;-86
2021/07/23 02:35:41;;;;;;;0.47;0.47;;;14.90;72.80;;;;;;5021993;28;20032;-86
2021/07/23 02:38:07;;;;;;;0.68;0.60;;;15.10;72.90;;;;;;5023780;28;20090;-86
2021/07/23 02:40:33;;;;;;;0.60;0.60;;;15.00;72.90;;;;;;5018624;28;20037;-86
2021/07/23 02:42:59;;;;;;;0.60;0.60;;;14.90;72.80;;;;;;5050847;28;20052;-86
2021/07/23 02:45:24;;;;;;;1.00;0.70;;;14.90;72.90;;;;;;5040666;28;20543;-86
2021/07/23 02:47:51;;;;;;;0.82;0.70;;;14.90;72.80;;;;;;5023928;28;20032;-86
2021/07/23 02:50:16;;;;;;;0.68;0.55;;;14.90;72.90;;;;;;5056997;28;20029;-86
2021/07/23 02:52:42;;;;;;;1.02;0.60;;;14.90;73.10;;;;;;5048508;28;20036;-86
2021/07/23 02:55:09;;;;;;;0.70;0.68;;;14.80;73.10;;;;;;5023618;28;20029;-86
2021/07/23 02:57:34;;;;;;;0.50;0.50;;;14.80;73.20;;;;;;5022819;28;20160;-86
2021/07/23 03:00:00;;;;;;;0.50;0.50;;;14.80;73.30;;;;;;5039269;28;20129;-87
2021/07/23 03:02:26;;;;;;;0.85;0.73;;;14.80;73.40;;;;;;5039995;28;20041;-86
2021/07/23 03:04:52;;;;;;;0.70;0.70;;;14.60;73.40;;;;;;5039935;28;20037;-86
2021/07/23 03:07:17;;;;;;;0.60;0.50;;;14.50;73.50;;;;;;5039568;28;20128;-86
2021/07/23 03:09:43;;;;;;;0.60;0.50;;;14.70;73.70;;;;;;5055518;28;20045;-87
2021/07/23 03:12:09;;;;;;;0.68;0.65;;;14.60;73.80;;;;;;5056631;28;20044;-86
2021/07/23 03:14:34;;;;;;;0.50;0.50;;;14.50;73.80;;;;;;5039969;28;20040;-86
2021/07/23 03:17:00;;;;;;;0.50;0.47;;;14.60;74.00;;;;;;5039724;28;20494;-86
2021/07/23 03:19:26;;;;;;;0.80;0.60;;;14.40;73.90;;;;;;5039694;28;20105;-86
2021/07/23 03:21:54;;;;;;;0.40;0.40;;;14.50;74.00;;;;;;5039726;28;20131;-86
2021/07/23 03:24:19;;;;;;;0.70;0.70;;;14.50;74.10;;;;;;5039920;28;20037;-87
2021/07/23 03:26:46;;;;;;;0.40;0.40;;;14.50;74.20;;;;;;5056311;28;20045;-87
2021/07/23 03:29:12;;;;;;;0.65;0.50;;;14.40;74.20;;;;;;5039476;28;20037;-86
2021/07/23 03:31:38;;;;;;;0.70;0.57;;;14.30;74.10;;;;;;5037582;28;20036;-86
2021/07/23 03:34:04;;;;;;;0.70;0.70;;;14.40;74.20;;;;;;5055974;28;20044;-86
2021/07/23 03:36:30;;;;;;;0.60;0.60;;;14.40;74.20;;;;;;5052703;28;20132;-86
2021/07/23 03:38:56;;;;;;;0.40;0.40;;;14.40;74.30;;;;;;5035698;28;20449;-86
2021/07/23 03:41:22;;;;;;;0.52;0.52;;;14.40;74.30;;;;;;5039202;28;20041;-86
2021/07/23 03:43:47;;;;;;;0.40;0.40;;;14.40;74.30;;;;;;5022150;28;20049;-87
2021/07/23 03:46:13;;;;;;;0.40;0.40;;;14.40;74.40;;;;;;5022607;28;20044;-86
2021/07/23 03:48:39;;;;;;;0.47;0.47;;;14.30;74.40;;;;;;5022757;28;20090;-86
2021/07/23 03:51:05;;;;;;;0.60;0.60;;;14.50;74.60;;;;;;5022832;28;20032;-87
2021/07/23 03:53:30;;;;;;;0.30;0.30;;;14.30;74.50;;;;;;5020286;28;20079;-86
2021/07/23 03:55:56;;;;;;;0.47;0.47;;;14.30;74.60;;;;;;5039226;28;20158;-86
2021/07/23 03:58:24;;;;;;;0.60;0.50;;;14.30;74.60;;;;;;5022753;28;20044;-87
2021/07/23 04:00:50;;;;;;;0.52;0.50;;;14.20;74.60;;;;;;5022082;28;20041;-87
2021/07/23 04:03:16;;;;;;;0.50;0.50;;;14.40;74.70;;;;;;5039671;28;20041;-87
2021/07/23 04:05:43;;;;;;;0.88;0.60;;;14.10;74.50;;;;;;5022940;28;20052;-87
2021/07/23 04:08:09;;;;;;;0.98;0.70;;;14.40;74.70;;;;;;5023185;28;20045;-87
2021/07/23 04:10:35;;;;;;;0.60;0.60;;;14.30;74.60;;;;;;5039666;28;20037;-87
2021/07/23 04:13:00;;;;;;;0.52;0.52;;;14.30;74.70;;;;;;5023140;28;20040;-87
2021/07/23 04:15:26;;;;;;;0.73;0.65;;;14.20;74.60;;;;;;5022856;28;20104;-87
2021/07/23 04:17:52;;;;;;;0.82;0.50;;;14.30;74.70;;;;;;5022008;28;20049;-86
2021/07/23 04:20:17;;;;;;;0.85;0.73;;;14.30;74.80;;;;;;5037823;28;20551;-87
2021/07/23 04:22:43;;;;;;;0.70;0.68;;;14.20;74.80;;;;;;5037360;28;20072;-87
2021/07/23 04:25:11;;;;;;;0.77;0.68;;;14.20;74.90;;;;;;5021991;28;20441;-87
2021/07/23 04:27:37;;;;;;;0.90;0.80;;;14.20;75.00;;;;;;5039712;28;20558;-87
2021/07/23 04:30:04;;;;;;;0.60;0.50;;;14.20;75.00;;;;;;5039114;28;20060;-87
2021/07/23 04:32:29;;;;;;;0.82;0.60;;;14.20;75.00;;;;;;5017818;28;20034;-87
2021/07/23 04:34:55;;;;;;;0.80;0.60;;;14.20;75.00;;;;;;5066186;28;20044;-87
2021/07/23 04:37:21;;;;;;;0.70;0.70;;;14.30;75.10;;;;;;5038536;28;20032;-87
2021/07/23 04:39:49;;;;;;;0.68;0.68;;;14.20;75.00;;;;;;5022085;28;20441;-87
2021/07/23 04:42:15;;;;;;;0.77;0.47;;;14.20;75.00;;;;;;5055129;28;20102;-87
2021/07/23 04:44:41;;;;;;;0.60;0.60;;;14.20;75.00;;;;;;5022108;28;20414;-86
2021/07/23 04:47:06;;;;;;;0.73;0.60;;;14.20;75.00;;;;;;5038860;28;20036;-86
2021/07/23 04:49:32;;;;;;;0.90;0.50;;;14.30;75.10;;;;;;5022163;28;20556;-86
2021/07/23 04:51:58;;;;;;;0.82;0.55;;;14.30;75.10;;;;;;5055262;28;20395;-85
2021/07/23 04:54:23;;;;;;;0.50;0.50;;;14.20;75.00;;;;;;5022544;28;20040;-87
2021/07/23 04:56:52;;;;;;;0.80;0.70;;;14.30;75.00;;;;;;5025539;28;20048;-87
2021/07/23 04:59:18;;;;;;;0.73;0.60;;;14.40;75.00;;;;;;5058758;28;20076;-87
2021/07/23 05:01:44;;;;;;;0.85;0.73;;;14.50;75.00;;;;;;5025389;28;20113;-86
2021/07/23 05:04:10;;;;;;;0.60;0.60;;;14.50;75.00;;;;;;5040986;28;20043;-85
2021/07/23 05:06:37;;;;;;;0.60;0.60;;;14.50;74.90;;;;;;5040470;28;20049;-86
2021/07/23 05:09:05;;;;;;;0.57;0.57;;;14.60;74.80;;;;;;5056364;28;20454;-86
2021/07/23 05:11:31;;;;;;;0.60;0.60;;;14.60;74.80;;;;;;5025158;28;20399;-86
2021/07/23 05:13:58;;;;;;;0.40;0.40;;;14.60;74.70;;;;;;5041311;28;20036;-86
2021/07/23 05:16:24;;;;;;;1.02;0.70;;;14.80;74.70;;;;;;5058448;28;20044;-86
2021/07/23 05:18:50;;;;;;;0.70;0.60;;;14.80;74.60;;;;;;5024431;28;20098;-86
2021/07/23 05:21:16;;;;;;;0.60;0.60;;;14.90;74.50;;;;;;5038922;28;20439;-85
2021/07/23 05:23:42;;;;;;;0.68;0.50;;;14.90;74.30;;;;;;5057533;28;20071;-86
2021/07/23 05:26:09;;;;;;;0.52;0.50;;;15.00;74.30;;;;;;5039416;28;20080;-86
2021/07/23 05:28:35;;;;;;;0.82;0.60;;;15.10;74.20;;;;;;5024282;28;20037;-85
2021/07/23 05:31:00;;;;;;;0.98;0.77;;;15.10;74.00;;;;;;5057408;28;20119;-86
2021/07/23 05:33:26;;;;;;;0.70;0.70;;;15.20;73.90;;;;;;5040836;28;20132;-85
2021/07/23 05:35:52;;;;;;;1.25;0.70;;;15.30;73.80;;;;;;5038796;28;20387;-86
2021/07/23 05:38:18;;;;;;;0.60;0.40;;;15.40;73.70;;;;;;5038789;28;20044;-86
2021/07/23 05:40:44;;;;;;;0.82;0.70;;;15.40;73.60;;;;;;5038860;28;20513;-86
2021/07/23 05:43:10;;;;;;;0.73;0.60;;;15.60;73.60;;;;;;5024269;28;20041;-85
2021/07/23 05:45:38;;;;;;;0.52;0.50;;;15.60;73.40;;;;;;5057478;28;20482;-86
2021/07/23 05:48:05;;;;;;;0.98;0.70;;;15.70;73.30;;;;;;5024496;28;20419;-85
2021/07/23 05:50:31;;;;;;;0.35;0.35;;;15.80;73.30;;;;;;5057935;28;20033;-86
2021/07/23 05:52:57;;;;;;;0.40;0.40;;;15.80;73.20;;;;;;5038602;28;20063;-86
2021/07/23 05:55:23;;;;;;;0.40;0.40;;;15.90;73.10;;;;;;5023878;28;20470;-84
2021/07/23 05:57:49;;;;;;;0.50;0.50;;;15.90;73.00;;;;;;5058884;28;20474;-88
2021/07/23 06:00:15;;;;;;;1.20;0.55;;;16.10;73.10;;;;;;5024604;28;20047;-87
2021/07/23 06:02:42;;;;;;;0.40;0.30;;;16.00;73.00;;;;;;5040979;28;20041;-87
2021/07/23 06:08:44;;;;;;;0.57;0.57;;;16.00;72.80;;;;;;4944463;29;20043;-86
2021/07/23 06:11:10;;;;;;;0.30;0.30;;;16.10;72.80;;;;;;4942732;29;20087;-85
2021/07/23 06:13:36;;;;;;;0.50;0.50;;;16.10;72.70;;;;;;4920468;29;20061;-83
2021/07/23 06:24:32;;;;;;;0.55;0.45;;;16.40;72.40;;;;;;4872826;29;20057;-89
2021/07/23 06:27:42;;;;;;;0.50;0.50;;;16.50;72.20;;;;;;4850962;29;20054;-89
2021/07/23 06:30:17;;;;;;;0.30;0.30;;;16.60;72.00;;;;;;4811361;29;20046;-89
2021/07/23 06:33:28;;;;;;;0.32;0.32;;;16.60;71.80;;;;;;4777344;29;20055;-89
2021/07/23 06:39:57;;;;;;;0.65;0.40;;;16.90;71.70;;;;;;4839986;29;21360;-84
2021/07/23 06:43:17;;;;;;;0.50;0.50;;;17.00;71.40;;;;;;4842350;29;20046;-84
2021/07/23 06:46:18;;;;;;;0.40;0.40;;;17.10;71.20;;;;;;4805821;29;20051;-88
2021/07/23 06:48:44;;;;;;;0.22;0.22;;;17.20;71.00;;;;;;4834498;29;20136;-84
2021/07/23 06:53:58;;;;;;;0.40;0.40;;;17.40;70.70;;;;;;4827999;29;20060;-84
2021/07/23 06:56:24;;;;;;;0.90;0.57;;;17.60;70.60;;;;;;4882018;29;20047;-80
2021/07/23 06:58:50;;;;;;;0.43;0.43;;;17.70;70.40;;;;;;4880868;29;20048;-80
2021/07/23 07:01:16;;;;;;;0.70;0.57;;;17.90;70.30;;;;;;4897727;29;20076;-82
2021/07/23 07:03:49;;;;;;;0.50;0.50;;;18.00;70.10;;;;;;4898332;29;20040;-84
2021/07/23 07:06:15;;;;;;;0.68;0.68;;;18.10;70.00;;;;;;4924368;28;20043;-82
2021/07/23 07:11:35;;;;;;;0.75;0.63;;;18.20;69.50;;;;;;4938118;28;20598;-84
2021/07/23 07:14:05;;;;;;;0.45;0.45;;;18.40;69.50;;;;;;4958084;28;20042;-78
2021/07/23 07:20:05;;;;;;;0.82;0.63;;;18.90;69.00;;;;;;4986682;28;20133;-83
2021/07/23 07:22:33;;;;;;;0.70;0.68;;;19.10;68.70;;;;;;5026671;28;20114;-82
2021/07/23 07:25:00;;;;;;;1.27;0.60;;;19.40;68.50;;;;;;5004849;28;20143;-76
2021/07/23 07:27:26;;;;;;;0.40;0.40;;;19.60;68.30;;;;;;5036649;28;20045;-81
2021/07/23 07:29:51;;;;;;;1.15;0.60;;;19.70;67.90;;;;;;5067989;28;20065;-80
2021/07/23 07:32:20;;;;;;;0.40;0.40;;;19.70;68.00;;;;;;5068888;28;20097;-81
2021/07/23 07:34:45;;;;;;;0.50;0.50;;;19.80;68.00;;;;;;5036837;28;20092;-79
2021/07/23 07:37:11;;;;;;;0.82;0.68;;;19.80;68.00;;;;;;5089663;28;20051;-81
2021/07/23 07:39:37;;;;;;;1.63;0.85;;;19.70;68.10;;;;;;5068418;28;20049;-78
2021/07/23 07:42:03;;;;;;;0.70;0.70;;;19.60;68.50;;;;;;5059340;28;20044;-89
2021/07/23 07:44:29;;;;;;;1.02;0.80;;;19.50;68.90;;;;;;5074434;28;20052;-83
2021/07/23 07:46:55;;;;;;;0.68;0.68;;;19.40;69.00;;;;;;5057411;28;20040;-84
2021/07/23 07:49:20;;;;;;;1.20;0.88;;;19.40;69.10;;;;;;5046866;28;20083;-84
2021/07/23 07:51:48;;;;;;;0.90;0.82;;;19.40;69.20;;;;;;5052315;28;20533;-83
2021/07/23 07:54:14;;;;;;;0.82;0.73;;;19.40;69.40;;;;;;5029052;28;20152;-84
2021/07/23 07:56:40;;;;;;;0.90;0.68;;;19.40;69.60;;;;;;4988488;28;20488;-82
2021/07/23 07:59:08;;;;;;;0.85;0.80;;;19.50;69.50;;;;;;4991406;28;20061;-85
2021/07/23 08:01:33;;;;;;;0.90;0.85;;;19.50;69.30;;;;;;5040874;28;20045;-83
2021/07/23 08:03:59;;;;;;;1.27;0.80;;;19.50;69.30;;;;;;5036942;28;20064;-83
2021/07/23 08:06:29;;;;;;;0.70;0.68;;;19.60;69.30;;;;;;5022677;28;20045;-84
2021/07/23 08:09:00;;;;;;;0.63;0.63;;;19.50;69.20;;;;;;5006817;28;20051;-84
2021/07/23 08:11:26;;;;;;;1.00;0.80;;;19.50;69.20;;;;;;5010654;28;20049;-84
2021/07/23 08:13:51;;;;;;;0.50;0.50;;;19.50;69.20;;;;;;5022250;28;20491;-84
2021/07/23 08:16:17;;;;;;;0.68;0.65;;;19.50;69.20;;;;;;5009053;28;20396;-85
2021/07/23 08:18:43;;;;;;;0.80;0.80;;;19.60;69.40;;;;;;5003278;28;20527;-84
2021/07/23 08:21:09;;;;;;;0.73;0.63;;;19.70;69.10;;;;;;5020369;28;20049;-83
2021/07/23 08:23:36;;;;;;;0.77;0.70;;;19.80;68.70;;;;;;4989631;28;20083;-83
2021/07/23 08:26:04;;;;;;;1.80;0.90;;;19.80;68.70;;;;;;5076628;28;20052;-83
2021/07/23 08:28:30;;;;;;;1.10;0.80;;;19.80;68.70;;;;;;5062339;28;20036;-83
2021/07/23 08:30:56;;;;;;;0.90;0.60;;;19.80;68.80;;;;;;5064565;28;20054;-83
2021/07/23 08:33:25;;;;;;;0.90;0.80;;;19.80;68.80;;;;;;5044391;28;20071;-82
2021/07/23 08:35:51;;;;;;;0.80;0.80;;;19.80;68.90;;;;;;5019379;28;20426;-84
2021/07/23 08:38:17;;;;;;;0.80;0.80;;;19.90;68.70;;;;;;5004371;28;20045;-83
2021/07/23 08:40:43;;;;;;;1.10;0.90;;;20.00;68.70;;;;;;5036314;28;20049;-83
2021/07/23 08:43:10;;;;;;;1.02;0.82;;;20.00;68.50;;;;;;5020113;28;20061;-84
2021/07/23 08:45:36;;;;;;;0.77;0.73;;;20.10;68.40;;;;;;5036478;28;20446;-84
2021/07/23 08:48:04;;;;;;;1.48;1.00;;;20.10;68.30;;;;;;5004264;28;20111;-84
2021/07/23 08:50:30;;;;;;;0.60;0.60;;;20.10;68.40;;;;;;5005900;28;20033;-83
2021/07/23 08:52:55;;;;;;;0.82;0.70;;;20.20;68.40;;;;;;5003393;28;20053;-83
2021/07/23 08:55:27;;;;;;;1.05;0.80;;;20.20;68.40;;;;;;5018508;28;20240;-83
2021/07/23 08:57:53;;;;;;;1.05;0.80;;;20.30;68.30;;;;;;5019306;28;20045;-84
2021/07/23 09:00:21;;;;;;;0.85;0.70;;;20.40;68.20;;;;;;5039440;28;20495;-87
2021/07/23 09:02:57;;;;;;;1.00;0.82;;;20.40;68.20;;;;;;5005161;28;20060;-84
2021/07/23 09:05:28;;;;;;;0.88;0.70;;;20.40;68.10;;;;;;4987311;28;20049;-84
2021/07/23 09:08:01;;;;;;;0.88;0.68;;;20.40;68.10;;;;;;5058299;28;20056;-84
2021/07/23 09:10:30;;;;;;;1.30;0.80;;;20.40;68.10;;;;;;5042826;28;20117;-83
2021/07/23 09:13:00;;;;;;;1.17;0.80;;;20.30;68.10;;;;;;5080562;28;20039;-82
2021/07/23 09:15:32;;;;;;;0.63;0.60;;;20.40;68.20;;;;;;5060192;28;20041;-83
2021/07/23 09:17:58;;;;;;;1.92;0.88;;;20.50;68.20;;;;;;5046102;28;20127;-84
2021/07/23 09:20:28;;;;;;;0.88;0.80;;;20.60;68.10;;;;;;5045344;28;20044;-83
2021/07/23 09:22:57;;;;;;;0.60;0.60;;;20.50;68.00;;;;;;5029899;28;20068;-83
2021/07/23 09:25:34;;;;;;;1.15;0.80;;;20.50;68.10;;;;;;5027453;28;20048;-84
2021/07/23 09:28:00;;;;;;;0.70;0.70;;;20.50;68.10;;;;;;5043098;28;20044;-84
2021/07/23 09:30:41;;;;;;;0.98;0.80;;;20.50;68.10;;;;;;5063868;28;20043;-84
2021/07/23 09:33:07;;;;;;;0.90;0.77;;;20.50;68.20;;;;;;5061993;28;20037;-83
2021/07/23 09:35:33;;;;;;;1.23;0.80;;;20.60;68.20;;;;;;5047717;28;20067;-84
2021/07/23 09:37:59;;;;;;;0.82;0.70;;;20.50;68.30;;;;;;5046977;28;20437;-84
2021/07/23 09:40:38;;;;;;;0.60;0.60;;;20.50;68.50;;;;;;5080100;28;20513;-85
2021/07/23 09:43:04;;;;;;;0.55;0.55;;;20.60;68.40;;;;;;5066746;28;20028;-84
2021/07/23 09:45:32;;;;;;;0.93;0.63;;;20.60;68.30;;;;;;5065243;28;20049;-84
2021/07/23 09:48:11;;;;;;;1.08;0.73;;;20.60;68.30;;;;;;5032339;28;20059;-84
2021/07/23 09:50:43;;;;;;;0.70;0.70;;;20.70;68.10;;;;;;5048207;28;20039;-84
2021/07/23 09:53:10;;;;;;;1.15;0.80;;;20.80;68.00;;;;;;5047174;28;20044;-85
2021/07/23 09:55:36;;;;;;;0.63;0.60;;;20.90;67.90;;;;;;5029359;28;20110;-85
2021/07/23 09:58:06;;;;;;;0.60;0.60;;;21.10;67.80;;;;;;5061292;28;20080;-83
2021/07/23 10:00:38;;;;;;;0.77;0.60;;;21.10;67.50;;;;;;5061277;28;20132;-84
2021/07/23 10:03:06;;;;;;;1.00;0.70;;;21.20;67.30;;;;;;5059826;28;20636;-85
2021/07/23 10:05:37;;;;;;;1.10;0.82;;;21.20;67.20;;;;;;5043254;28;20045;-84
2021/07/23 10:08:10;;;;;;;1.27;1.00;;;21.30;67.20;;;;;;5059620;28;20044;-85
2021/07/23 10:10:38;;;;;;;1.27;0.95;;;21.40;67.10;;;;;;5079744;28;20068;-86
2021/07/23 10:13:06;;;;;;;1.15;0.90;;;21.50;67.00;;;;;;5037239;28;20046;-85
2021/07/23 10:15:35;;;;;;;0.75;0.70;;;21.50;66.90;;;;;;5054248;28;20057;-86
2021/07/23 10:18:01;;;;;;;0.95;0.73;;;21.50;66.90;;;;;;5036656;28;20098;-84
2021/07/23 10:20:27;;;;;;;1.08;0.90;;;21.60;67.00;;;;;;5037630;28;20085;-85
2021/07/23 10:22:54;;;;;;;0.80;0.70;;;21.60;67.10;;;;;;5053537;28;20127;-84
2021/07/23 10:25:26;;;;;;;0.77;0.77;;;21.60;67.00;;;;;;5052695;28;20056;-85
2021/07/23 10:27:53;;;;;;;1.05;0.77;;;21.50;67.10;;;;;;5052324;28;20124;-83
2021/07/23 10:30:34;;;;;;;0.82;0.65;;;21.60;67.40;;;;;;5036120;28;20037;-85
2021/07/23 10:33:05;;;;;;;0.93;0.70;;;21.40;67.40;;;;;;5036732;28;20140;-84
2021/07/23 10:35:32;;;;;;;;;;;21.30;67.50;;;;;;5019768;28;20061;-85
2021/07/23 10:37:59;;;;;;;0.85;0.70;;;21.40;67.70;;;;;;5002491;28;19918;-85
2021/07/23 10:40:40;;;;;;;1.58;0.70;;;21.40;67.70;;;;;;5033866;28;20046;-85
2021/07/23 10:43:41;;;;;;;0.90;0.80;;;21.30;67.80;;;;;;5034823;28;20128;-84
2021/07/23 10:46:07;;;;;;;1.00;0.90;;;21.40;67.50;;;;;;5035738;28;20048;-82
2021/07/23 10:48:47;;;;;;;1.35;0.88;;;21.50;67.40;;;;;;5057869;28;20045;-84
2021/07/23 10:51:45;;;;;;;0.93;0.70;;;21.50;67.30;;;;;;5075947;28;20036;-83
2021/07/23 10:54:11;;;;;;;1.05;0.80;;;21.50;67.30;;;;;;5052018;28;20039;-81
2021/07/23 10:57:15;;;;;;;1.10;0.80;;;21.60;67.40;;;;;;5056915;28;20044;-80
2021/07/23 10:59:52;;;;;;;0.73;0.73;;;21.70;67.00;;;;;;5043776;28;20131;-80
2021/07/23 11:02:41;;;;;;;0.70;0.70;;;21.70;66.80;;;;;;5057735;28;20494;-80
2021/07/23 11:05:09;;;;;;;1.02;0.70;;;21.70;66.70;;;;;;5044812;28;20167;-79
2021/07/23 11:07:36;;;;;;;0.80;0.80;;;21.80;67.20;;;;;;5062477;28;20041;-80
2021/07/23 11:10:04;;;;;;;0.88;0.70;;;21.80;66.50;;;;;;5065458;28;20048;-80
2021/07/23 11:12:37;;;;;;;0.90;0.90;;;21.80;66.50;;;;;;5065404;28;20090;-81
2021/07/23 11:15:07;;;;;;;1.08;0.90;;;22.00;66.30;;;;;;5035216;28;20051;-79
2021/07/23 11:17:33;;;;;;;1.42;0.93;;;22.00;66.10;;;;;;5066544;28;20406;-80
2021/07/23 11:20:02;;;;;;;1.00;0.90;;;22.10;65.90;;;;;;5067797;28;20064;-81
2021/07/23 11:22:32;;;;;;;6.75;1.17;;;22.20;65.80;;;;;;5068035;28;20108;-80
2021/07/23 11:25:01;;;;;;;2.35;1.00;;;22.30;65.40;;;;;;5080307;28;20033;-80
2021/07/23 11:27:29;;;;;;;0.80;0.70;;;22.30;65.30;;;;;;5048209;28;20056;-82
2021/07/23 11:29:55;;;;;;;1.42;1.00;;;22.30;65.40;;;;;;5058119;28;20059;-78
2021/07/23 11:32:22;;;;;;;0.80;0.80;;;22.30;65.60;;;;;;5053565;28;20032;-78
2021/07/23 11:35:00;;;;;;;1.73;1.05;;;22.30;65.60;;;;;;5038610;28;20037;-77
2021/07/23 11:37:26;;;;;;;1.05;0.90;;;22.30;65.50;;;;;;5072967;28;20040;-80
2021/07/23 11:40:02;;;;;;;1.15;0.80;;;22.30;65.50;;;;;;5038536;28;20390;-80
2021/07/23 11:42:29;;;;;;;1.20;0.90;;;22.40;65.60;;;;;;5052154;28;20041;-81
2021/07/23 11:44:59;;;;;;;0.70;0.70;;;22.30;65.40;;;;;;5017927;28;20367;-82
2021/07/23 11:47:34;;;;;;;0.75;0.75;;;22.50;65.40;;;;;;5073115;28;20048;-81
2021/07/23 11:50:06;;;;;;;1.17;1.00;;;22.50;65.20;;;;;;5055312;28;20048;-81
2021/07/23 11:52:32;;;;;;;0.98;0.88;;;22.70;64.90;;;;;;5038986;28;20036;-80
2021/07/23 11:55:02;;;;;;;0.63;0.63;;;22.70;64.70;;;;;;5034463;28;20041;-80
2021/07/23 11:57:31;;;;;;;1.25;0.80;;;22.80;64.60;;;;;;5054849;28;20125;-83
2021/07/23 11:59:57;;;;;;;0.85;0.80;;;22.90;64.40;;;;;;5056606;28;20124;-80
2021/07/23 12:02:27;;;;;;;0.95;0.85;;;22.90;64.50;;;;;;5039362;28;20036;-86
2021/07/23 12:05:10;;;;;;;1.02;0.80;;;23.00;64.30;;;;;;5053960;28;20074;-86
2021/07/23 12:07:38;;;;;;;0.73;0.73;;;23.00;64.20;;;;;;5071229;28;20040;-85
2021/07/23 12:10:10;;;;;;;1.05;0.90;;;22.90;64.20;;;;;;5055684;28;20094;-85
2021/07/23 12:12:37;;;;;;;1.23;1.00;;;22.90;64.30;;;;;;5072422;28;20036;-84
2021/07/23 12:15:04;;;;;;;0.95;0.90;;;22.90;64.50;;;;;;5040282;28;20033;-86
2021/07/23 12:17:31;;;;;;;1.10;1.00;;;22.80;64.70;;;;;;5056917;28;20036;-85
2021/07/23 12:19:57;;;;;;;1.00;0.90;;;22.80;64.70;;;;;;5039522;28;20501;-86
2021/07/23 12:22:23;;;;;;;1.13;1.02;;;22.80;64.90;;;;;;5040815;28;20036;-86
2021/07/23 12:24:49;;;;;;;1.35;1.00;;;22.90;65.10;;;;;;5057094;28;20037;-85
2021/07/23 12:27:16;;;;;;;1.10;0.80;;;22.90;64.50;;;;;;5023641;28;20045;-87
2021/07/23 12:29:42;;;;;;;1.30;1.00;;;23.00;64.30;;;;;;5055696;28;20047;-85
2021/07/23 12:32:15;;;;;;;0.88;0.88;;;23.00;64.10;;;;;;5070925;28;20037;-86
2021/07/23 12:34:42;;;;;;;2.38;1.10;;;22.90;64.30;;;;;;5054989;28;20036;-86
2021/07/23 12:37:17;;;;;;;1.33;1.00;;;22.80;64.60;;;;;;5074701;28;20048;-86
2021/07/23 12:40:01;;;;;;;1.50;0.95;;;22.90;64.50;;;;;;5045243;28;20044;-85
2021/07/23 12:42:30;;;;;;;1.58;1.10;;;22.80;64.40;;;;;;5055152;28;20375;-85
2021/07/23 12:44:56;;;;;;;1.38;1.10;;;22.90;64.40;;;;;;5039248;28;20068;-86
2021/07/23 12:47:24;;;;;;;1.33;0.95;;;22.90;64.40;;;;;;5055262;28;20044;-85
2021/07/23 12:49:51;;;;;;;1.15;0.90;;;23.00;64.60;;;;;;5073276;28;20041;-85
2021/07/23 12:52:18;;;;;;;0.85;0.80;;;22.90;64.20;;;;;;5057143;28;20131;-85
2021/07/23 12:54:47;;;;;;;1.08;0.95;;;23.00;64.20;;;;;;5055688;28;20043;-86
2021/07/23 12:57:31;;;;;;;1.33;1.10;;;23.10;63.90;;;;;;5073728;28;20036;-86
2021/07/23 13:00:18;;;;;;;1.50;1.00;;;23.20;63.60;;;;;;5050528;28;20573;-85
2021/07/23 13:02:45;;;;;;;1.42;1.00;;;23.10;63.70;;;;;;5056294;28;20055;-85
2021/07/23 13:05:11;;;;;;;1.30;0.88;;;23.10;63.80;;;;;;5073254;28;20105;-86
2021/07/23 13:07:36;;;;;;;1.20;1.10;;;23.10;64.00;;;;;;5054884;28;20044;-86
2021/07/23 13:10:03;;;;;;;1.17;1.05;;;23.10;64.00;;;;;;5077456;28;20126;-84
2021/07/23 13:12:29;;;;;;;1.23;1.02;;;23.00;64.00;;;;;;5039295;28;20060;-85
2021/07/23 13:14:55;;;;;;;1.23;1.00;;;23.00;63.90;;;;;;5058793;28;20072;-87
2021/07/23 13:17:21;;;;;;;1.75;1.13;;;23.00;63.90;;;;;;5060535;28;20094;-85
2021/07/23 13:19:47;;;;;;;1.35;1.15;;;23.00;63.90;;;;;;5064903;28;20036;-87